sensor_id;sensor_type;location;lat;lon;timestamp;P1;durP1;ratioP1;P2;durP2;ratioP2
55784;SDS011;41709;52.536;5.688;2022-08-21T00:02:25;5.80;;;2.30;;
55784;SDS011;41709;52.536;5.688;2022-08-21T00:04:51;3.83;;;2.28;;
55784;SDS011;41709;52.536;5.688;2022-08-21T00:07:18;6.38;;;2.13;;
55784;SDS011;41709;52.536;5.688;2022-08-21T00:09:45;4.72;;;2.58;;
55784;SDS011;41709;52.536;5.688;2022-08-21T00:12:11;8.77;;;2.65;;
55784;SDS011;41709;52.536;5.688;2022-08-21T00:14:37;4.97;;;2.72;;
55784;SDS011;41709;52.536;5.688;2022-08-21T00:17:03;5.07;;;3.28;;
55784;SDS011;41709;52.536;5.688;2022-08-21T00:19:30;5.97;;;2.47;;
55784;SDS011;41709;52.536;5.688;2022-08-21T00:21:56;5.97;;;2.40;;
55784;SDS011;41709;52.536;5.688;2022-08-21T00:24:22;7.28;;;2.53;;
55784;SDS011;41709;52.536;5.688;2022-08-21T00:26:49;7.50;;;2.83;;
55784;SDS011;41709;52.536;5.688;2022-08-21T00:29:15;7.15;;;2.58;;
55784;SDS011;41709;52.536;5.688;2022-08-21T00:31:41;7.05;;;2.60;;
55784;SDS011;41709;52.536;5.688;2022-08-21T00:34:07;9.63;;;3.20;;
55784;SDS011;41709;52.536;5.688;2022-08-21T00:36:34;4.72;;;2.40;;
55784;SDS011;41709;52.536;5.688;2022-08-21T00:39:00;6.07;;;2.80;;
55784;SDS011;41709;52.536;5.688;2022-08-21T00:41:27;5.45;;;2.53;;
55784;SDS011;41709;52.536;5.688;2022-08-21T00:43:53;6.38;;;2.95;;
55784;SDS011;41709;52.536;5.688;2022-08-21T00:46:19;5.38;;;2.65;;
55784;SDS011;41709;52.536;5.688;2022-08-21T00:48:45;7.72;;;2.50;;
55784;SDS011;41709;52.536;5.688;2022-08-21T00:51:22;9.48;;;3.78;;
55784;SDS011;41709;52.536;5.688;2022-08-21T00:53:53;5.65;;;2.50;;
55784;SDS011;41709;52.536;5.688;2022-08-21T00:56:21;4.75;;;2.50;;
55784;SDS011;41709;52.536;5.688;2022-08-21T00:58:48;8.35;;;3.00;;
55784;SDS011;41709;52.536;5.688;2022-08-21T01:01:15;4.63;;;2.88;;
55784;SDS011;41709;52.536;5.688;2022-08-21T01:03:41;9.60;;;3.10;;
55784;SDS011;41709;52.536;5.688;2022-08-21T01:06:07;7.85;;;3.15;;
55784;SDS011;41709;52.536;5.688;2022-08-21T01:08:33;5.78;;;2.88;;
55784;SDS011;41709;52.536;5.688;2022-08-21T01:11:00;4.13;;;2.53;;
55784;SDS011;41709;52.536;5.688;2022-08-21T01:13:27;5.90;;;3.25;;
55784;SDS011;41709;52.536;5.688;2022-08-21T01:15:55;6.13;;;3.28;;
55784;SDS011;41709;52.536;5.688;2022-08-21T01:18:24;5.47;;;3.17;;
55784;SDS011;41709;52.536;5.688;2022-08-21T01:23:33;6.85;;;3.60;;
55784;SDS011;41709;52.536;5.688;2022-08-21T01:26:00;6.45;;;3.10;;
55784;SDS011;41709;52.536;5.688;2022-08-21T01:28:25;6.45;;;2.78;;
55784;SDS011;41709;52.536;5.688;2022-08-21T01:30:52;6.78;;;3.58;;
55784;SDS011;41709;52.536;5.688;2022-08-21T01:33:19;7.85;;;3.38;;
55784;SDS011;41709;52.536;5.688;2022-08-21T01:35:48;6.65;;;3.30;;
55784;SDS011;41709;52.536;5.688;2022-08-21T01:38:14;6.80;;;3.35;;
55784;SDS011;41709;52.536;5.688;2022-08-21T01:40:40;8.50;;;3.40;;
55784;SDS011;41709;52.536;5.688;2022-08-21T01:43:06;6.40;;;3.88;;
55784;SDS011;41709;52.536;5.688;2022-08-21T01:45:32;8.90;;;4.38;;
55784;SDS011;41709;52.536;5.688;2022-08-21T01:47:57;6.47;;;3.58;;
55784;SDS011;41709;52.536;5.688;2022-08-21T01:50:23;7.97;;;3.67;;
55784;SDS011;41709;52.536;5.688;2022-08-21T01:52:49;7.13;;;3.80;;
55784;SDS011;41709;52.536;5.688;2022-08-21T01:55:15;10.18;;;5.35;;
55784;SDS011;41709;52.536;5.688;2022-08-21T01:57:43;6.40;;;4.07;;
55784;SDS011;41709;52.536;5.688;2022-08-21T02:00:11;6.18;;;3.78;;
55784;SDS011;41709;52.536;5.688;2022-08-21T02:02:39;8.52;;;4.07;;
55784;SDS011;41709;52.536;5.688;2022-08-21T02:05:07;10.32;;;3.95;;
55784;SDS011;41709;52.536;5.688;2022-08-21T02:07:38;8.90;;;4.43;;
55784;SDS011;41709;52.536;5.688;2022-08-21T02:10:07;7.38;;;4.57;;
55784;SDS011;41709;52.536;5.688;2022-08-21T02:12:34;9.68;;;4.80;;
55784;SDS011;41709;52.536;5.688;2022-08-21T02:15:00;7.55;;;4.13;;
55784;SDS011;41709;52.536;5.688;2022-08-21T02:17:26;7.05;;;4.10;;
55784;SDS011;41709;52.536;5.688;2022-08-21T02:19:51;7.63;;;4.57;;
55784;SDS011;41709;52.536;5.688;2022-08-21T02:22:17;11.55;;;4.80;;
55784;SDS011;41709;52.536;5.688;2022-08-21T02:24:42;7.80;;;4.65;;
55784;SDS011;41709;52.536;5.688;2022-08-21T02:27:08;8.30;;;4.50;;
55784;SDS011;41709;52.536;5.688;2022-08-21T02:29:34;6.05;;;3.95;;
55784;SDS011;41709;52.536;5.688;2022-08-21T02:32:00;6.55;;;4.40;;
55784;SDS011;41709;52.536;5.688;2022-08-21T02:34:25;6.38;;;4.18;;
55784;SDS011;41709;52.536;5.688;2022-08-21T02:36:51;6.07;;;4.35;;
55784;SDS011;41709;52.536;5.688;2022-08-21T02:39:16;10.40;;;4.63;;
55784;SDS011;41709;52.536;5.688;2022-08-21T02:41:42;7.75;;;3.70;;
55784;SDS011;41709;52.536;5.688;2022-08-21T02:44:08;7.82;;;4.30;;
55784;SDS011;41709;52.536;5.688;2022-08-21T02:46:33;9.32;;;4.53;;
55784;SDS011;41709;52.536;5.688;2022-08-21T02:48:59;9.20;;;5.13;;
55784;SDS011;41709;52.536;5.688;2022-08-21T02:51:25;7.43;;;4.53;;
55784;SDS011;41709;52.536;5.688;2022-08-21T02:53:50;9.30;;;4.95;;
55784;SDS011;41709;52.536;5.688;2022-08-21T02:56:18;6.30;;;4.35;;
55784;SDS011;41709;52.536;5.688;2022-08-21T02:58:46;6.57;;;4.68;;
55784;SDS011;41709;52.536;5.688;2022-08-21T03:01:14;5.72;;;4.40;;
55784;SDS011;41709;52.536;5.688;2022-08-21T03:03:41;6.80;;;4.55;;
55784;SDS011;41709;52.536;5.688;2022-08-21T03:06:08;6.88;;;4.70;;
55784;SDS011;41709;52.536;5.688;2022-08-21T03:08:35;8.60;;;4.78;;
55784;SDS011;41709;52.536;5.688;2022-08-21T03:11:02;6.90;;;4.72;;
55784;SDS011;41709;52.536;5.688;2022-08-21T03:13:28;12.07;;;5.45;;
55784;SDS011;41709;52.536;5.688;2022-08-21T03:15:54;11.68;;;4.45;;
55784;SDS011;41709;52.536;5.688;2022-08-21T03:18:20;8.07;;;4.65;;
55784;SDS011;41709;52.536;5.688;2022-08-21T03:20:46;6.95;;;3.88;;
55784;SDS011;41709;52.536;5.688;2022-08-21T03:23:11;8.20;;;4.38;;
55784;SDS011;41709;52.536;5.688;2022-08-21T03:25:38;6.78;;;4.65;;
55784;SDS011;41709;52.536;5.688;2022-08-21T03:28:05;7.45;;;4.63;;
55784;SDS011;41709;52.536;5.688;2022-08-21T03:30:32;8.55;;;4.75;;
55784;SDS011;41709;52.536;5.688;2022-08-21T03:32:58;8.30;;;4.40;;
55784;SDS011;41709;52.536;5.688;2022-08-21T03:35:25;10.77;;;4.78;;
55784;SDS011;41709;52.536;5.688;2022-08-21T03:37:52;6.85;;;4.63;;
55784;SDS011;41709;52.536;5.688;2022-08-21T03:40:18;6.68;;;4.50;;
55784;SDS011;41709;52.536;5.688;2022-08-21T03:42:45;9.73;;;5.30;;
55784;SDS011;41709;52.536;5.688;2022-08-21T03:45:12;8.32;;;4.53;;
55784;SDS011;41709;52.536;5.688;2022-08-21T03:47:39;8.18;;;4.70;;
55784;SDS011;41709;52.536;5.688;2022-08-21T03:50:15;8.27;;;4.47;;
55784;SDS011;41709;52.536;5.688;2022-08-21T03:52:42;6.82;;;4.00;;
55784;SDS011;41709;52.536;5.688;2022-08-21T03:55:07;8.38;;;4.60;;
55784;SDS011;41709;52.536;5.688;2022-08-21T03:57:33;8.57;;;4.38;;
55784;SDS011;41709;52.536;5.688;2022-08-21T03:59:58;8.70;;;4.78;;
55784;SDS011;41709;52.536;5.688;2022-08-21T04:02:24;6.40;;;4.50;;
55784;SDS011;41709;52.536;5.688;2022-08-21T04:04:50;7.70;;;4.45;;
55784;SDS011;41709;52.536;5.688;2022-08-21T04:07:15;10.48;;;4.30;;
55784;SDS011;41709;52.536;5.688;2022-08-21T04:09:42;7.95;;;4.60;;
55784;SDS011;41709;52.536;5.688;2022-08-21T04:12:08;7.25;;;4.72;;
55784;SDS011;41709;52.536;5.688;2022-08-21T04:14:34;12.38;;;5.28;;
55784;SDS011;41709;52.536;5.688;2022-08-21T04:16:59;8.32;;;4.68;;
55784;SDS011;41709;52.536;5.688;2022-08-21T04:19:25;8.80;;;5.63;;
55784;SDS011;41709;52.536;5.688;2022-08-21T04:21:50;6.35;;;4.38;;
55784;SDS011;41709;52.536;5.688;2022-08-21T04:24:16;7.10;;;4.82;;
55784;SDS011;41709;52.536;5.688;2022-08-21T04:26:41;11.02;;;5.05;;
55784;SDS011;41709;52.536;5.688;2022-08-21T04:29:07;6.15;;;4.38;;
55784;SDS011;41709;52.536;5.688;2022-08-21T04:31:33;11.75;;;5.53;;
55784;SDS011;41709;52.536;5.688;2022-08-21T04:34:02;11.52;;;4.72;;
55784;SDS011;41709;52.536;5.688;2022-08-21T04:36:29;14.90;;;6.70;;
55784;SDS011;41709;52.536;5.688;2022-08-21T04:38:55;8.57;;;4.55;;
55784;SDS011;41709;52.536;5.688;2022-08-21T04:41:21;7.18;;;4.25;;
55784;SDS011;41709;52.536;5.688;2022-08-21T04:43:46;8.85;;;4.47;;
55784;SDS011;41709;52.536;5.688;2022-08-21T04:46:12;10.07;;;4.40;;
55784;SDS011;41709;52.536;5.688;2022-08-21T04:48:37;10.70;;;4.50;;
55784;SDS011;41709;52.536;5.688;2022-08-21T04:51:06;6.88;;;4.32;;
55784;SDS011;41709;52.536;5.688;2022-08-21T04:53:41;10.23;;;5.00;;
55784;SDS011;41709;52.536;5.688;2022-08-21T04:56:17;9.35;;;4.28;;
55784;SDS011;41709;52.536;5.688;2022-08-21T04:58:46;8.75;;;4.38;;
55784;SDS011;41709;52.536;5.688;2022-08-21T05:01:15;7.88;;;4.38;;
55784;SDS011;41709;52.536;5.688;2022-08-21T05:03:45;7.80;;;4.50;;
55784;SDS011;41709;52.536;5.688;2022-08-21T05:06:13;7.78;;;4.50;;
55784;SDS011;41709;52.536;5.688;2022-08-21T05:08:41;11.77;;;3.97;;
55784;SDS011;41709;52.536;5.688;2022-08-21T05:11:08;7.57;;;4.43;;
55784;SDS011;41709;52.536;5.688;2022-08-21T05:13:34;7.15;;;4.43;;
55784;SDS011;41709;52.536;5.688;2022-08-21T05:16:01;8.60;;;5.03;;
55784;SDS011;41709;52.536;5.688;2022-08-21T05:18:26;8.20;;;4.20;;
55784;SDS011;41709;52.536;5.688;2022-08-21T05:20:52;7.57;;;4.20;;
55784;SDS011;41709;52.536;5.688;2022-08-21T05:23:17;10.00;;;4.65;;
55784;SDS011;41709;52.536;5.688;2022-08-21T05:25:43;9.63;;;4.25;;
55784;SDS011;41709;52.536;5.688;2022-08-21T05:28:09;9.23;;;4.10;;
55784;SDS011;41709;52.536;5.688;2022-08-21T05:30:35;9.30;;;3.92;;
55784;SDS011;41709;52.536;5.688;2022-08-21T05:33:03;6.45;;;4.10;;
55784;SDS011;41709;52.536;5.688;2022-08-21T05:35:30;7.90;;;3.95;;
55784;SDS011;41709;52.536;5.688;2022-08-21T05:37:57;9.82;;;4.38;;
55784;SDS011;41709;52.536;5.688;2022-08-21T05:40:24;10.05;;;4.00;;
55784;SDS011;41709;52.536;5.688;2022-08-21T05:42:50;6.30;;;4.63;;
55784;SDS011;41709;52.536;5.688;2022-08-21T05:45:16;7.38;;;3.92;;
55784;SDS011;41709;52.536;5.688;2022-08-21T05:47:42;10.93;;;4.60;;
55784;SDS011;41709;52.536;5.688;2022-08-21T05:50:08;5.90;;;4.05;;
55784;SDS011;41709;52.536;5.688;2022-08-21T05:52:34;8.25;;;4.53;;
55784;SDS011;41709;52.536;5.688;2022-08-21T05:55:00;9.85;;;4.20;;
55784;SDS011;41709;52.536;5.688;2022-08-21T05:57:25;6.53;;;3.80;;
55784;SDS011;41709;52.536;5.688;2022-08-21T05:59:51;6.90;;;4.13;;
55784;SDS011;41709;52.536;5.688;2022-08-21T06:02:17;7.72;;;4.38;;
55784;SDS011;41709;52.536;5.688;2022-08-21T06:04:44;7.50;;;4.20;;
55784;SDS011;41709;52.536;5.688;2022-08-21T06:07:10;12.32;;;4.68;;
55784;SDS011;41709;52.536;5.688;2022-08-21T06:09:36;7.45;;;4.00;;
55784;SDS011;41709;52.536;5.688;2022-08-21T06:12:06;8.68;;;4.60;;
55784;SDS011;41709;52.536;5.688;2022-08-21T06:14:36;9.98;;;4.30;;
55784;SDS011;41709;52.536;5.688;2022-08-21T06:17:07;12.88;;;4.80;;
55784;SDS011;41709;52.536;5.688;2022-08-21T06:19:35;8.88;;;4.13;;
55784;SDS011;41709;52.536;5.688;2022-08-21T06:22:01;12.50;;;5.03;;
55784;SDS011;41709;52.536;5.688;2022-08-21T06:24:27;11.02;;;4.72;;
55784;SDS011;41709;52.536;5.688;2022-08-21T06:26:53;7.45;;;4.13;;
55784;SDS011;41709;52.536;5.688;2022-08-21T06:29:19;12.52;;;5.22;;
55784;SDS011;41709;52.536;5.688;2022-08-21T06:31:46;8.07;;;4.97;;
55784;SDS011;41709;52.536;5.688;2022-08-21T06:34:12;11.35;;;4.65;;
55784;SDS011;41709;52.536;5.688;2022-08-21T06:36:38;9.82;;;4.90;;
55784;SDS011;41709;52.536;5.688;2022-08-21T06:39:04;10.73;;;5.57;;
55784;SDS011;41709;52.536;5.688;2022-08-21T06:41:30;12.63;;;4.82;;
55784;SDS011;41709;52.536;5.688;2022-08-21T06:43:56;10.45;;;4.85;;
55784;SDS011;41709;52.536;5.688;2022-08-21T06:46:23;13.55;;;5.07;;
55784;SDS011;41709;52.536;5.688;2022-08-21T06:48:50;6.57;;;4.33;;
55784;SDS011;41709;52.536;5.688;2022-08-21T06:51:16;9.23;;;4.28;;
55784;SDS011;41709;52.536;5.688;2022-08-21T06:53:42;9.93;;;4.57;;
55784;SDS011;41709;52.536;5.688;2022-08-21T06:56:07;8.55;;;4.63;;
55784;SDS011;41709;52.536;5.688;2022-08-21T06:58:33;11.00;;;4.68;;
55784;SDS011;41709;52.536;5.688;2022-08-21T07:00:58;10.38;;;4.97;;
55784;SDS011;41709;52.536;5.688;2022-08-21T07:03:29;6.68;;;4.30;;
55784;SDS011;41709;52.536;5.688;2022-08-21T07:06:00;6.30;;;4.30;;
55784;SDS011;41709;52.536;5.688;2022-08-21T07:08:27;8.70;;;5.07;;
55784;SDS011;41709;52.536;5.688;2022-08-21T07:10:53;8.05;;;4.35;;
55784;SDS011;41709;52.536;5.688;2022-08-21T07:13:21;7.80;;;4.30;;
55784;SDS011;41709;52.536;5.688;2022-08-21T07:15:47;9.07;;;5.05;;
55784;SDS011;41709;52.536;5.688;2022-08-21T07:18:12;7.32;;;4.05;;
55784;SDS011;41709;52.536;5.688;2022-08-21T07:20:38;11.20;;;4.20;;
55784;SDS011;41709;52.536;5.688;2022-08-21T07:23:06;10.70;;;4.10;;
55784;SDS011;41709;52.536;5.688;2022-08-21T07:25:35;6.95;;;3.97;;
55784;SDS011;41709;52.536;5.688;2022-08-21T07:28:01;9.13;;;4.10;;
55784;SDS011;41709;52.536;5.688;2022-08-21T07:30:27;8.75;;;3.50;;
55784;SDS011;41709;52.536;5.688;2022-08-21T07:32:53;11.80;;;4.80;;
55784;SDS011;41709;52.536;5.688;2022-08-21T07:35:20;18.92;;;4.93;;
55784;SDS011;41709;52.536;5.688;2022-08-21T07:37:47;11.25;;;4.40;;
55784;SDS011;41709;52.536;5.688;2022-08-21T07:40:13;11.48;;;4.45;;
55784;SDS011;41709;52.536;5.688;2022-08-21T07:42:43;11.90;;;5.40;;
55784;SDS011;41709;52.536;5.688;2022-08-21T07:45:12;11.13;;;3.97;;
55784;SDS011;41709;52.536;5.688;2022-08-21T07:47:39;13.20;;;4.68;;
55784;SDS011;41709;52.536;5.688;2022-08-21T07:50:05;11.75;;;4.13;;
55784;SDS011;41709;52.536;5.688;2022-08-21T07:52:31;11.65;;;4.88;;
55784;SDS011;41709;52.536;5.688;2022-08-21T07:54:57;11.68;;;4.38;;
55784;SDS011;41709;52.536;5.688;2022-08-21T07:57:23;11.70;;;4.10;;
55784;SDS011;41709;52.536;5.688;2022-08-21T07:59:48;8.95;;;4.82;;
55784;SDS011;41709;52.536;5.688;2022-08-21T08:02:24;9.48;;;4.75;;
55784;SDS011;41709;52.536;5.688;2022-08-21T08:04:50;9.75;;;4.72;;
55784;SDS011;41709;52.536;5.688;2022-08-21T08:07:16;11.35;;;4.28;;
55784;SDS011;41709;52.536;5.688;2022-08-21T08:09:42;9.38;;;4.07;;
55784;SDS011;41709;52.536;5.688;2022-08-21T08:12:08;10.13;;;4.55;;
55784;SDS011;41709;52.536;5.688;2022-08-21T08:14:35;10.05;;;4.80;;
55784;SDS011;41709;52.536;5.688;2022-08-21T08:17:00;10.27;;;4.40;;
55784;SDS011;41709;52.536;5.688;2022-08-21T08:19:27;13.02;;;5.03;;
55784;SDS011;41709;52.536;5.688;2022-08-21T08:21:53;10.95;;;4.00;;
55784;SDS011;41709;52.536;5.688;2022-08-21T08:24:19;9.43;;;4.60;;
55784;SDS011;41709;52.536;5.688;2022-08-21T08:26:45;13.10;;;5.07;;
55784;SDS011;41709;52.536;5.688;2022-08-21T08:29:11;11.52;;;4.50;;
55784;SDS011;41709;52.536;5.688;2022-08-21T08:31:36;11.20;;;4.05;;
55784;SDS011;41709;52.536;5.688;2022-08-21T08:34:02;11.68;;;3.85;;
55784;SDS011;41709;52.536;5.688;2022-08-21T08:36:37;11.68;;;4.53;;
55784;SDS011;41709;52.536;5.688;2022-08-21T08:39:03;13.38;;;4.47;;
55784;SDS011;41709;52.536;5.688;2022-08-21T08:41:30;14.65;;;4.40;;
55784;SDS011;41709;52.536;5.688;2022-08-21T08:43:58;10.77;;;3.97;;
55784;SDS011;41709;52.536;5.688;2022-08-21T08:49:09;11.60;;;4.43;;
55784;SDS011;41709;52.536;5.688;2022-08-21T08:54:20;14.07;;;4.13;;
55784;SDS011;41709;52.536;5.688;2022-08-21T08:56:52;9.43;;;3.60;;
55784;SDS011;41709;52.536;5.688;2022-08-21T08:59:26;10.50;;;3.42;;
55784;SDS011;41709;52.536;5.688;2022-08-21T09:01:55;9.13;;;4.15;;
55784;SDS011;41709;52.536;5.688;2022-08-21T09:04:23;10.88;;;3.45;;
55784;SDS011;41709;52.536;5.688;2022-08-21T09:10:05;10.25;;;3.55;;
55784;SDS011;41709;52.536;5.688;2022-08-21T09:12:49;9.45;;;2.75;;
55784;SDS011;41709;52.536;5.688;2022-08-21T09:18:09;11.43;;;4.07;;
55784;SDS011;41709;52.536;5.688;2022-08-21T09:23:40;13.52;;;3.67;;
55784;SDS011;41709;52.536;5.688;2022-08-21T09:26:21;11.45;;;3.22;;
55784;SDS011;41709;52.536;5.688;2022-08-21T09:28:55;9.23;;;3.42;;
55784;SDS011;41709;52.536;5.688;2022-08-21T09:31:34;11.50;;;2.97;;
55784;SDS011;41709;52.536;5.688;2022-08-21T09:34:04;9.50;;;3.08;;
55784;SDS011;41709;52.536;5.688;2022-08-21T09:36:38;9.18;;;2.60;;
55784;SDS011;41709;52.536;5.688;2022-08-21T09:39:25;11.40;;;2.67;;
55784;SDS011;41709;52.536;5.688;2022-08-21T09:42:00;10.95;;;2.50;;
55784;SDS011;41709;52.536;5.688;2022-08-21T09:44:28;8.77;;;2.45;;
55784;SDS011;41709;52.536;5.688;2022-08-21T09:46:56;7.40;;;2.47;;
55784;SDS011;41709;52.536;5.688;2022-08-21T09:51:54;22.30;;;12.35;;
55784;SDS011;41709;52.536;5.688;2022-08-21T09:54:20;9.10;;;2.30;;
55784;SDS011;41709;52.536;5.688;2022-08-21T09:56:55;9.27;;;2.80;;
55784;SDS011;41709;52.536;5.688;2022-08-21T09:59:44;9.05;;;2.40;;
55784;SDS011;41709;52.536;5.688;2022-08-21T10:02:31;13.30;;;3.65;;
55784;SDS011;41709;52.536;5.688;2022-08-21T10:04:59;10.38;;;2.20;;
55784;SDS011;41709;52.536;5.688;2022-08-21T10:07:36;7.60;;;2.47;;
55784;SDS011;41709;52.536;5.688;2022-08-21T10:10:04;7.07;;;2.40;;
55784;SDS011;41709;52.536;5.688;2022-08-21T10:12:48;9.27;;;2.42;;
55784;SDS011;41709;52.536;5.688;2022-08-21T10:18:46;11.43;;;2.10;;
55784;SDS011;41709;52.536;5.688;2022-08-21T10:21:28;7.88;;;2.28;;
55784;SDS011;41709;52.536;5.688;2022-08-21T10:27:20;8.40;;;2.03;;
55784;SDS011;41709;52.536;5.688;2022-08-21T10:29:53;3.78;;;1.52;;
55784;SDS011;41709;52.536;5.688;2022-08-21T10:40:25;9.80;;;2.20;;
55784;SDS011;41709;52.536;5.688;2022-08-21T10:48:28;11.52;;;1.80;;
55784;SDS011;41709;52.536;5.688;2022-08-21T10:51:09;10.43;;;1.83;;
55784;SDS011;41709;52.536;5.688;2022-08-21T10:53:55;15.73;;;2.17;;
55784;SDS011;41709;52.536;5.688;2022-08-21T10:56:29;11.88;;;2.03;;
55784;SDS011;41709;52.536;5.688;2022-08-21T11:04:36;5.35;;;1.60;;
55784;SDS011;41709;52.536;5.688;2022-08-21T11:07:20;6.68;;;1.67;;
55784;SDS011;41709;52.536;5.688;2022-08-21T11:09:54;3.92;;;1.70;;
55784;SDS011;41709;52.536;5.688;2022-08-21T11:12:40;11.02;;;1.60;;
55784;SDS011;41709;52.536;5.688;2022-08-21T11:18:32;6.93;;;2.08;;
55784;SDS011;41709;52.536;5.688;2022-08-21T11:23:31;9.15;;;3.00;;
55784;SDS011;41709;52.536;5.688;2022-08-21T11:26:11;9.57;;;2.85;;
55784;SDS011;41709;52.536;5.688;2022-08-21T11:28:48;4.75;;;1.75;;
55784;SDS011;41709;52.536;5.688;2022-08-21T11:33:57;8.73;;;2.22;;
55784;SDS011;41709;52.536;5.688;2022-08-21T11:42:55;5.65;;;1.85;;
55784;SDS011;41709;52.536;5.688;2022-08-21T11:45:51;7.75;;;1.83;;
55784;SDS011;41709;52.536;5.688;2022-08-21T11:51:11;9.18;;;1.75;;
55784;SDS011;41709;52.536;5.688;2022-08-21T11:53:44;7.65;;;1.63;;
55784;SDS011;41709;52.536;5.688;2022-08-21T11:56:46;6.10;;;1.70;;
55784;SDS011;41709;52.536;5.688;2022-08-21T11:59:39;5.53;;;1.85;;
55784;SDS011;41709;52.536;5.688;2022-08-21T12:02:15;9.05;;;2.38;;
55784;SDS011;41709;52.536;5.688;2022-08-21T12:04:49;6.57;;;2.08;;
55784;SDS011;41709;52.536;5.688;2022-08-21T12:09:59;6.80;;;2.13;;
55784;SDS011;41709;52.536;5.688;2022-08-21T12:12:33;13.85;;;3.47;;
55784;SDS011;41709;52.536;5.688;2022-08-21T12:15:23;4.40;;;1.50;;
55784;SDS011;41709;52.536;5.688;2022-08-21T12:18:02;7.55;;;1.90;;
55784;SDS011;41709;52.536;5.688;2022-08-21T12:21:28;6.35;;;1.90;;
55784;SDS011;41709;52.536;5.688;2022-08-21T12:26:18;8.00;;;1.52;;
55784;SDS011;41709;52.536;5.688;2022-08-21T12:29:02;6.22;;;1.50;;
55784;SDS011;41709;52.536;5.688;2022-08-21T12:31:56;9.85;;;2.40;;
55784;SDS011;41709;52.536;5.688;2022-08-21T12:37:14;5.80;;;1.60;;
55784;SDS011;41709;52.536;5.688;2022-08-21T12:39:47;9.10;;;1.80;;
55784;SDS011;41709;52.536;5.688;2022-08-21T12:42:17;4.82;;;1.42;;
55784;SDS011;41709;52.536;5.688;2022-08-21T12:45:15;3.58;;;1.20;;
55784;SDS011;41709;52.536;5.688;2022-08-21T12:47:47;6.60;;;1.83;;
55784;SDS011;41709;52.536;5.688;2022-08-21T12:50:23;8.10;;;2.28;;
55784;SDS011;41709;52.536;5.688;2022-08-21T12:52:59;3.70;;;1.48;;
55784;SDS011;41709;52.536;5.688;2022-08-21T12:55:40;8.18;;;1.88;;
55784;SDS011;41709;52.536;5.688;2022-08-21T12:58:16;9.60;;;1.63;;
55784;SDS011;41709;52.536;5.688;2022-08-21T13:00:48;5.32;;;1.35;;
55784;SDS011;41709;52.536;5.688;2022-08-21T13:03:21;5.93;;;1.55;;
55784;SDS011;41709;52.536;5.688;2022-08-21T13:05:48;5.70;;;1.92;;
55784;SDS011;41709;52.536;5.688;2022-08-21T13:08:16;3.88;;;1.40;;
55784;SDS011;41709;52.536;5.688;2022-08-21T13:10:44;8.25;;;1.83;;
55784;SDS011;41709;52.536;5.688;2022-08-21T13:13:20;4.57;;;1.60;;
55784;SDS011;41709;52.536;5.688;2022-08-21T13:15:48;9.80;;;1.92;;
55784;SDS011;41709;52.536;5.688;2022-08-21T13:18:21;4.43;;;1.50;;
55784;SDS011;41709;52.536;5.688;2022-08-21T13:23:28;4.72;;;1.42;;
55784;SDS011;41709;52.536;5.688;2022-08-21T13:25:55;8.85;;;1.98;;
55784;SDS011;41709;52.536;5.688;2022-08-21T13:28:21;5.85;;;1.15;;
55784;SDS011;41709;52.536;5.688;2022-08-21T13:30:48;3.35;;;0.98;;
55784;SDS011;41709;52.536;5.688;2022-08-21T13:33:16;4.22;;;1.00;;
55784;SDS011;41709;52.536;5.688;2022-08-21T13:35:48;5.65;;;1.60;;
55784;SDS011;41709;52.536;5.688;2022-08-21T13:38:20;3.63;;;1.38;;
55784;SDS011;41709;52.536;5.688;2022-08-21T13:40:51;3.55;;;1.27;;
55784;SDS011;41709;52.536;5.688;2022-08-21T13:43:22;4.97;;;1.17;;
55784;SDS011;41709;52.536;5.688;2022-08-21T13:45:56;5.53;;;1.23;;
55784;SDS011;41709;52.536;5.688;2022-08-21T13:48:23;6.93;;;1.58;;
55784;SDS011;41709;52.536;5.688;2022-08-21T13:50:52;6.93;;;1.65;;
55784;SDS011;41709;52.536;5.688;2022-08-21T13:53:22;5.68;;;1.30;;
55784;SDS011;41709;52.536;5.688;2022-08-21T13:55:53;4.22;;;1.60;;
55784;SDS011;41709;52.536;5.688;2022-08-21T14:00:55;8.23;;;2.20;;
55784;SDS011;41709;52.536;5.688;2022-08-21T14:05:57;9.25;;;2.55;;
55784;SDS011;41709;52.536;5.688;2022-08-21T14:10:52;6.32;;;1.35;;
55784;SDS011;41709;52.536;5.688;2022-08-21T14:13:28;5.22;;;1.40;;
55784;SDS011;41709;52.536;5.688;2022-08-21T14:15:58;4.70;;;1.65;;
55784;SDS011;41709;52.536;5.688;2022-08-21T14:18:26;4.93;;;1.27;;
55784;SDS011;41709;52.536;5.688;2022-08-21T14:20:52;6.43;;;1.92;;
55784;SDS011;41709;52.536;5.688;2022-08-21T14:23:32;3.92;;;1.15;;
55784;SDS011;41709;52.536;5.688;2022-08-21T14:25:59;3.97;;;1.15;;
55784;SDS011;41709;52.536;5.688;2022-08-21T14:30:56;2.67;;;1.35;;
55784;SDS011;41709;52.536;5.688;2022-08-21T14:33:25;4.63;;;1.35;;
55784;SDS011;41709;52.536;5.688;2022-08-21T14:35:53;5.03;;;1.30;;
55784;SDS011;41709;52.536;5.688;2022-08-21T14:38:21;4.90;;;1.27;;
55784;SDS011;41709;52.536;5.688;2022-08-21T14:40:51;5.25;;;0.80;;
55784;SDS011;41709;52.536;5.688;2022-08-21T14:43:19;3.03;;;0.85;;
55784;SDS011;41709;52.536;5.688;2022-08-21T14:45:44;3.53;;;0.95;;
55784;SDS011;41709;52.536;5.688;2022-08-21T14:48:10;5.28;;;1.13;;
55784;SDS011;41709;52.536;5.688;2022-08-21T14:50:36;2.10;;;1.20;;
55784;SDS011;41709;52.536;5.688;2022-08-21T14:53:02;3.70;;;1.70;;
55784;SDS011;41709;52.536;5.688;2022-08-21T14:55:29;4.50;;;1.20;;
55784;SDS011;41709;52.536;5.688;2022-08-21T14:57:55;7.05;;;1.42;;
55784;SDS011;41709;52.536;5.688;2022-08-21T15:00:23;5.30;;;1.30;;
55784;SDS011;41709;52.536;5.688;2022-08-21T15:02:49;8.57;;;1.70;;
55784;SDS011;41709;52.536;5.688;2022-08-21T15:05:16;5.35;;;1.45;;
55784;SDS011;41709;52.536;5.688;2022-08-21T15:07:43;5.60;;;1.10;;
55784;SDS011;41709;52.536;5.688;2022-08-21T15:10:10;5.45;;;1.75;;
55784;SDS011;41709;52.536;5.688;2022-08-21T15:12:36;5.80;;;0.98;;
55784;SDS011;41709;52.536;5.688;2022-08-21T15:15:04;6.88;;;1.60;;
55784;SDS011;41709;52.536;5.688;2022-08-21T15:17:30;4.75;;;1.42;;
55784;SDS011;41709;52.536;5.688;2022-08-21T15:19:56;4.47;;;1.33;;
55784;SDS011;41709;52.536;5.688;2022-08-21T15:22:22;4.22;;;1.17;;
55784;SDS011;41709;52.536;5.688;2022-08-21T15:24:47;7.50;;;1.38;;
55784;SDS011;41709;52.536;5.688;2022-08-21T15:27:13;2.63;;;0.98;;
55784;SDS011;41709;52.536;5.688;2022-08-21T15:29:41;5.28;;;1.05;;
55784;SDS011;41709;52.536;5.688;2022-08-21T15:32:26;5.53;;;1.92;;
55784;SDS011;41709;52.536;5.688;2022-08-21T15:34:54;6.90;;;1.88;;
55784;SDS011;41709;52.536;5.688;2022-08-21T15:37:21;4.00;;;0.90;;
55784;SDS011;41709;52.536;5.688;2022-08-21T15:39:49;5.57;;;1.10;;
55784;SDS011;41709;52.536;5.688;2022-08-21T15:42:15;3.83;;;1.60;;
55784;SDS011;41709;52.536;5.688;2022-08-21T15:44:41;5.03;;;1.20;;
55784;SDS011;41709;52.536;5.688;2022-08-21T15:47:12;4.15;;;1.40;;
55784;SDS011;41709;52.536;5.688;2022-08-21T15:49:40;4.43;;;1.67;;
55784;SDS011;41709;52.536;5.688;2022-08-21T15:52:09;3.97;;;1.33;;
55784;SDS011;41709;52.536;5.688;2022-08-21T15:54:42;8.10;;;1.02;;
55784;SDS011;41709;52.536;5.688;2022-08-21T15:57:12;5.70;;;0.98;;
55784;SDS011;41709;52.536;5.688;2022-08-21T15:59:41;8.07;;;2.30;;
55784;SDS011;41709;52.536;5.688;2022-08-21T16:02:13;8.40;;;1.90;;
55784;SDS011;41709;52.536;5.688;2022-08-21T16:04:47;5.80;;;0.93;;
55784;SDS011;41709;52.536;5.688;2022-08-21T16:07:13;5.38;;;1.30;;
55784;SDS011;41709;52.536;5.688;2022-08-21T16:09:40;2.55;;;0.90;;
55784;SDS011;41709;52.536;5.688;2022-08-21T16:12:06;4.10;;;0.98;;
55784;SDS011;41709;52.536;5.688;2022-08-21T16:14:34;2.77;;;0.70;;
55784;SDS011;41709;52.536;5.688;2022-08-21T16:17:02;6.20;;;1.08;;
55784;SDS011;41709;52.536;5.688;2022-08-21T16:19:30;3.03;;;0.95;;
55784;SDS011;41709;52.536;5.688;2022-08-21T16:21:56;5.40;;;1.48;;